createdAt,value
2023-11-07T00:04:01.863Z,3.10
2023-11-07T00:09:05.480Z,2.50
2023-11-07T00:14:08.867Z,2.30
2023-11-07T00:19:13.031Z,2.50
2023-11-07T00:24:16.601Z,2.60
2023-11-07T00:29:21.768Z,4.60
2023-11-07T00:34:25.347Z,4.10
2023-11-07T00:39:28.688Z,3.10
2023-11-07T00:44:33.159Z,2.90
2023-11-07T00:49:36.617Z,2.30
2023-11-07T00:54:39.984Z,2.70
2023-11-07T00:59:43.465Z,2.60
2023-11-07T01:04:46.938Z,3.10
2023-11-07T01:09:50.550Z,2.90
2023-11-07T01:14:53.998Z,2.90
2023-11-07T01:19:57.464Z,3.40
2023-11-07T01:25:00.829Z,3.20
2023-11-07T01:30:06.340Z,3.10
2023-11-07T01:35:13.013Z,4.00
2023-11-07T01:40:16.371Z,3.60
2023-11-07T01:45:19.883Z,3.90
2023-11-07T01:50:23.380Z,3.70
2023-11-07T01:55:26.861Z,3.60
2023-11-07T02:00:31.421Z,3.70
2023-11-07T02:05:36.059Z,3.30
2023-11-07T02:10:39.681Z,3.50
2023-11-07T02:15:43.099Z,3.50
2023-11-07T02:20:49.621Z,3.70
2023-11-07T02:25:53.449Z,3.60
2023-11-07T02:30:56.824Z,4.00
2023-11-07T02:36:01.608Z,3.80
2023-11-07T02:41:06.315Z,3.90
2023-11-07T02:46:09.686Z,3.70
2023-11-07T02:51:19.804Z,3.70
2023-11-07T02:56:29.919Z,3.00
2023-11-07T03:01:33.960Z,2.90
2023-11-07T03:06:37.428Z,3.20
2023-11-07T03:11:41.142Z,3.40
2023-11-07T03:16:44.626Z,3.20
2023-11-07T03:21:48.023Z,3.30
2023-11-07T03:26:51.505Z,2.70
2023-11-07T03:31:55.153Z,3.20
2023-11-07T03:36:58.609Z,2.90
2023-11-07T03:42:02.473Z,3.30
2023-11-07T03:47:07.232Z,2.80
2023-11-07T03:52:10.614Z,2.40
2023-11-07T03:57:13.951Z,3.90
2023-11-07T04:02:17.433Z,2.50
2023-11-07T04:07:20.817Z,2.80
2023-11-07T04:12:24.322Z,2.90
2023-11-07T04:17:27.736Z,3.10
2023-11-07T04:22:31.217Z,2.80
2023-11-07T04:27:36.200Z,2.80
2023-11-07T04:32:41.800Z,3.10
2023-11-07T04:37:45.249Z,2.90
2023-11-07T04:42:49.631Z,3.50
2023-11-07T04:47:53.193Z,3.70
2023-11-07T04:52:56.741Z,3.10
2023-11-07T04:58:02.707Z,2.80
2023-11-07T05:03:06.959Z,3.00
2023-11-07T05:08:10.542Z,3.40
2023-11-07T05:13:15.916Z,3.30
2023-11-07T05:18:20.358Z,3.20
2023-11-07T05:23:24.166Z,3.50
2023-11-07T05:28:27.528Z,3.40
2023-11-07T05:33:32.376Z,2.00
2023-11-07T05:38:35.855Z,3.00
2023-11-07T05:43:44.650Z,3.20
2023-11-07T05:48:49.466Z,2.60
2023-11-07T05:53:53.201Z,3.40
2023-11-07T05:58:56.651Z,3.20
2023-11-07T06:04:00.202Z,3.40
2023-11-07T06:09:04.258Z,3.70
2023-11-07T06:14:07.643Z,2.70
2023-11-07T06:19:12.490Z,3.70
2023-11-07T06:24:17.249Z,3.60
2023-11-07T06:29:21.651Z,3.70
2023-11-07T06:34:36.024Z,3.20
2023-11-07T06:39:45.828Z,3.90
2023-11-07T06:44:49.720Z,3.60
2023-11-07T06:49:53.380Z,4.00
2023-11-07T06:54:56.985Z,3.30
2023-11-07T07:00:00.430Z,3.80
2023-11-07T07:05:12.357Z,3.30
2023-11-07T07:10:15.848Z,2.80
2023-11-07T07:15:19.558Z,3.20
2023-11-07T07:20:25.560Z,3.20
2023-11-07T07:25:28.967Z,4.00
2023-11-07T07:30:33.936Z,3.60
2023-11-07T07:35:41.953Z,3.80
2023-11-07T07:40:45.442Z,3.30
2023-11-07T07:45:48.780Z,3.60
2023-11-07T07:51:00.643Z,2.80
2023-11-07T07:56:13.991Z,3.40
2023-11-07T08:01:21.561Z,3.50
2023-11-07T08:06:25.972Z,3.20
2023-11-07T08:11:31.421Z,3.60
2023-11-07T08:16:35.013Z,2.70
2023-11-07T08:21:42.362Z,2.30
2023-11-07T08:26:45.911Z,2.70
2023-11-07T08:31:49.693Z,2.10
2023-11-07T08:37:02.004Z,2.40
2023-11-07T08:42:12.644Z,2.50
2023-11-07T08:47:16.122Z,2.80
2023-11-07T08:52:19.539Z,2.90
2023-11-07T08:57:24.956Z,3.70
2023-11-07T09:02:28.549Z,3.00
2023-11-07T09:07:32.474Z,3.00
2023-11-07T09:12:35.898Z,3.80
2023-11-07T09:17:43.846Z,3.50
2023-11-07T09:22:48.179Z,2.70
2023-11-07T09:27:53.861Z,2.70
2023-11-07T09:39:24.080Z,2.50
2023-11-07T09:47:54.176Z,2.30
2023-11-07T09:53:19.468Z,2.10
2023-11-07T09:58:33.789Z,2.50
2023-11-07T10:03:40.735Z,2.70
2023-11-07T10:08:43.931Z,3.70
2023-11-07T10:14:25.929Z,4.10
2023-11-07T10:19:30.989Z,4.00
2023-11-07T10:24:46.569Z,3.40
2023-11-07T10:29:59.709Z,3.00
2023-11-07T10:35:03.325Z,3.60
2023-11-07T10:40:06.948Z,4.30
2023-11-07T10:45:15.300Z,6.20
2023-11-07T10:50:18.416Z,4.60
2023-11-07T10:55:41.750Z,3.80
2023-11-07T11:00:51.402Z,3.70
2023-11-07T11:06:01.404Z,2.60
2023-11-07T11:11:04.878Z,2.90
2023-11-07T11:16:09.051Z,2.70
2023-11-07T11:21:17.823Z,2.70
2023-11-07T11:26:31.327Z,3.10
2023-11-07T11:31:42.988Z,3.10
2023-11-07T11:37:00.932Z,2.80
2023-11-07T11:42:06.632Z,3.80
2023-11-07T11:47:10.091Z,3.60
2023-11-07T11:52:35.287Z,4.20
2023-11-07T11:58:43.794Z,2.60
2023-11-07T12:04:37.116Z,2.50
2023-11-07T12:09:50.519Z,1.90
2023-11-07T12:15:10.197Z,1.70
2023-11-07T12:20:17.809Z,3.00
2023-11-07T12:25:22.129Z,2.20
2023-11-07T12:30:25.524Z,2.50
2023-11-07T12:35:37.650Z,2.40
2023-11-07T12:40:41.109Z,2.10
2023-11-07T12:45:48.779Z,2.00
2023-11-07T12:50:50.974Z,2.60
2023-11-07T12:55:55.163Z,2.30
2023-11-07T13:00:59.464Z,2.60
2023-11-07T13:06:04.876Z,2.70
2023-11-07T13:11:09.633Z,2.70
2023-11-07T13:16:12.255Z,2.30
2023-11-07T13:21:15.403Z,1.60
2023-11-07T13:26:18.349Z,1.70
2023-11-07T13:31:20.417Z,1.70
2023-11-07T13:36:23.109Z,1.70
2023-11-07T13:41:25.183Z,2.20
2023-11-07T13:46:28.236Z,1.80
2023-11-07T13:51:30.479Z,2.00
2023-11-07T13:56:33.077Z,1.70
2023-11-07T14:01:39.188Z,1.80
2023-11-07T14:06:41.669Z,3.00
2023-11-07T14:11:44.313Z,3.20
2023-11-07T14:16:47.612Z,9.20
2023-11-07T14:21:50.285Z,4.00
2023-11-07T14:26:54.753Z,3.50
2023-11-07T14:31:56.929Z,2.30
2023-11-07T14:36:58.993Z,5.40
2023-11-07T14:42:02.920Z,4.20
2023-11-07T14:47:05.090Z,3.40
2023-11-07T14:52:08.885Z,5.10
2023-11-07T14:57:12.194Z,5.20
2023-11-07T15:02:22.231Z,3.80
2023-11-07T15:07:29.776Z,4.00
2023-11-07T15:12:31.872Z,5.70
2023-11-07T15:17:36.910Z,6.00
2023-11-07T15:22:40.399Z,9.80
2023-11-07T15:27:44.306Z,9.60
2023-11-07T15:32:48.371Z,8.90
2023-11-07T15:37:50.512Z,6.90
2023-11-07T15:42:52.712Z,5.60
2023-11-07T15:47:54.838Z,4.10
2023-11-07T15:53:07.477Z,3.10
2023-11-07T15:58:12.115Z,3.10
2023-11-07T16:03:17.145Z,3.10
2023-11-07T16:08:19.879Z,3.10
2023-11-07T16:13:22.359Z,3.00
2023-11-07T16:18:27.566Z,4.10
2023-11-07T16:23:30.232Z,3.30
2023-11-07T16:28:32.294Z,7.40
2023-11-07T16:33:34.887Z,4.40
2023-11-07T16:38:37.684Z,4.70
2023-11-07T16:43:39.757Z,4.70
2023-11-07T16:48:42.255Z,3.60
2023-11-07T16:53:45.315Z,3.80
2023-11-07T16:58:48.252Z,4.10
2023-11-07T17:03:50.827Z,3.90
2023-11-07T17:08:52.961Z,4.50
2023-11-07T17:13:55.159Z,6.40
2023-11-07T17:18:58.440Z,7.90
2023-11-07T17:24:01.094Z,9.20
2023-11-07T17:29:04.056Z,6.10
2023-11-07T17:34:09.205Z,5.00
2023-11-07T17:39:18.221Z,5.20
2023-11-07T17:44:21.658Z,5.30
2023-11-07T17:49:23.815Z,5.70
2023-11-07T17:54:25.831Z,5.60
2023-11-07T17:59:27.997Z,7.00
2023-11-07T18:04:30.878Z,7.10
2023-11-07T18:09:34.846Z,7.30
2023-11-07T18:14:38.440Z,7.10
2023-11-07T18:19:40.860Z,5.90
2023-11-07T18:24:44.626Z,5.60
2023-11-07T18:29:46.628Z,7.40
2023-11-07T18:34:48.796Z,6.60
2023-11-07T18:39:51.022Z,6.90
2023-11-07T18:44:53.631Z,7.40
2023-11-07T18:49:57.742Z,7.90
2023-11-07T18:55:01.551Z,7.10
2023-11-07T19:00:04.964Z,6.80
2023-11-07T19:05:07.632Z,6.60
2023-11-07T19:10:09.816Z,6.80
2023-11-07T19:15:15.503Z,8.50
2023-11-07T19:20:18.948Z,7.20
2023-11-07T19:25:22.839Z,7.20
2023-11-07T19:30:25.819Z,7.60
2023-11-07T19:35:28.016Z,6.80
2023-11-07T19:40:32.225Z,6.70
2023-11-07T19:45:34.624Z,7.60
2023-11-07T19:50:37.204Z,7.30
2023-11-07T19:55:39.386Z,7.20
2023-11-07T20:00:41.528Z,6.60
2023-11-07T20:05:45.843Z,7.10
2023-11-07T20:10:47.880Z,6.00
2023-11-07T20:15:50.104Z,6.70
2023-11-07T20:20:52.777Z,6.30
2023-11-07T20:25:55.374Z,6.80
2023-11-07T20:30:57.501Z,7.40
2023-11-07T20:36:01.866Z,6.90
2023-11-07T20:41:04.585Z,7.50
2023-11-07T20:46:15.650Z,6.90
2023-11-07T20:51:24.713Z,7.60
2023-11-07T20:56:30.584Z,6.80
2023-11-07T21:01:33.296Z,6.80
2023-11-07T21:06:35.488Z,5.40
2023-11-07T21:11:37.836Z,7.20
2023-11-07T21:16:39.918Z,6.20
2023-11-07T21:21:42.084Z,5.80
2023-11-07T21:26:45.130Z,6.40
2023-11-07T21:31:48.369Z,6.00
2023-11-07T21:36:50.626Z,5.80
2023-11-07T21:41:53.860Z,5.60
2023-11-07T21:46:55.885Z,6.60
2023-11-07T21:51:58.369Z,6.50
2023-11-07T21:57:02.036Z,6.20
2023-11-07T22:02:04.558Z,7.00
2023-11-07T22:07:06.671Z,7.00
2023-11-07T22:12:08.975Z,6.10
2023-11-07T22:17:11.263Z,6.40
2023-11-07T22:22:15.958Z,6.60
2023-11-07T22:27:19.213Z,6.00
2023-11-07T22:32:22.585Z,6.30
2023-11-07T22:37:25.312Z,5.60
2023-11-07T22:42:28.115Z,6.70
2023-11-07T22:47:30.665Z,7.10
2023-11-07T22:52:36.216Z,6.40
2023-11-07T22:57:39.279Z,6.10
2023-11-07T23:02:41.392Z,5.70
2023-11-07T23:07:43.404Z,6.60
2023-11-07T23:12:45.475Z,6.20
2023-11-07T23:17:47.852Z,5.70
2023-11-07T23:22:50.184Z,6.00
2023-11-07T23:27:52.469Z,6.20
2023-11-07T23:32:54.710Z,6.20
2023-11-07T23:37:57.855Z,6.90
2023-11-07T23:43:01.312Z,6.50
2023-11-07T23:48:03.828Z,7.40
2023-11-07T23:53:06.553Z,6.60
2023-11-07T23:58:08.569Z,6.80
